sensor_id;sensor_type;location;lat;lon;timestamp;P1;durP1;ratioP1;P2;durP2;ratioP2
24685;SDS011;12804;51.176;4.452;2023-03-31T00:01:29;12.23;;;2.58;;
24685;SDS011;12804;51.176;4.452;2023-03-31T00:04:01;11.40;;;2.22;;
24685;SDS011;12804;51.176;4.452;2023-03-31T00:06:34;13.95;;;2.58;;
24685;SDS011;12804;51.176;4.452;2023-03-31T00:09:03;18.10;;;2.83;;
24685;SDS011;12804;51.176;4.452;2023-03-31T00:11:30;14.77;;;2.38;;
24685;SDS011;12804;51.176;4.452;2023-03-31T00:13:56;12.70;;;1.85;;
24685;SDS011;12804;51.176;4.452;2023-03-31T00:16:22;13.57;;;2.20;;
24685;SDS011;12804;51.176;4.452;2023-03-31T00:18:48;8.23;;;2.33;;
24685;SDS011;12804;51.176;4.452;2023-03-31T00:21:19;14.57;;;2.55;;
24685;SDS011;12804;51.176;4.452;2023-03-31T00:23:52;13.73;;;2.35;;
24685;SDS011;12804;51.176;4.452;2023-03-31T00:26:19;10.85;;;2.55;;
24685;SDS011;12804;51.176;4.452;2023-03-31T00:28:47;12.65;;;2.63;;
24685;SDS011;12804;51.176;4.452;2023-03-31T00:31:13;14.05;;;2.50;;
24685;SDS011;12804;51.176;4.452;2023-03-31T00:33:39;13.77;;;2.83;;
24685;SDS011;12804;51.176;4.452;2023-03-31T00:36:05;15.43;;;3.15;;
24685;SDS011;12804;51.176;4.452;2023-03-31T00:38:32;20.13;;;2.70;;
24685;SDS011;12804;51.176;4.452;2023-03-31T00:40:58;12.23;;;3.05;;
24685;SDS011;12804;51.176;4.452;2023-03-31T00:43:32;12.07;;;2.17;;
24685;SDS011;12804;51.176;4.452;2023-03-31T00:46:08;17.52;;;2.78;;
24685;SDS011;12804;51.176;4.452;2023-03-31T00:48:50;15.27;;;3.08;;
24685;SDS011;12804;51.176;4.452;2023-03-31T00:51:18;15.10;;;2.97;;
24685;SDS011;12804;51.176;4.452;2023-03-31T00:53:47;15.48;;;2.67;;
24685;SDS011;12804;51.176;4.452;2023-03-31T00:56:21;12.95;;;2.58;;
24685;SDS011;12804;51.176;4.452;2023-03-31T00:58:48;20.35;;;2.55;;
24685;SDS011;12804;51.176;4.452;2023-03-31T01:01:15;9.30;;;2.28;;
24685;SDS011;12804;51.176;4.452;2023-03-31T01:03:43;16.42;;;2.58;;
24685;SDS011;12804;51.176;4.452;2023-03-31T01:06:11;10.73;;;2.67;;
24685;SDS011;12804;51.176;4.452;2023-03-31T01:08:39;16.25;;;2.50;;
24685;SDS011;12804;51.176;4.452;2023-03-31T01:11:06;15.38;;;2.63;;
24685;SDS011;12804;51.176;4.452;2023-03-31T01:13:36;11.60;;;2.10;;
24685;SDS011;12804;51.176;4.452;2023-03-31T01:16:07;9.67;;;2.17;;
24685;SDS011;12804;51.176;4.452;2023-03-31T01:18:34;10.38;;;1.90;;
24685;SDS011;12804;51.176;4.452;2023-03-31T01:21:24;14.10;;;2.08;;
24685;SDS011;12804;51.176;4.452;2023-03-31T01:45:58;15.13;;;1.65;;
24685;SDS011;12804;51.176;4.452;2023-03-31T01:51:48;8.20;;;1.60;;
24685;SDS011;12804;51.176;4.452;2023-03-31T01:54:32;9.50;;;1.60;;
24685;SDS011;12804;51.176;4.452;2023-03-31T01:57:29;10.82;;;1.75;;
24685;SDS011;12804;51.176;4.452;2023-03-31T02:00:02;11.98;;;2.30;;
24685;SDS011;12804;51.176;4.452;2023-03-31T02:02:38;15.98;;;2.50;;
24685;SDS011;12804;51.176;4.452;2023-03-31T02:05:23;11.93;;;1.95;;
24685;SDS011;12804;51.176;4.452;2023-03-31T02:07:52;12.63;;;2.30;;
24685;SDS011;12804;51.176;4.452;2023-03-31T02:10:28;15.63;;;2.72;;
24685;SDS011;12804;51.176;4.452;2023-03-31T02:12:57;9.68;;;2.40;;
24685;SDS011;12804;51.176;4.452;2023-03-31T02:15:26;11.80;;;2.47;;
24685;SDS011;12804;51.176;4.452;2023-03-31T02:17:56;18.17;;;3.53;;
24685;SDS011;12804;51.176;4.452;2023-03-31T02:20:24;16.88;;;2.90;;
24685;SDS011;12804;51.176;4.452;2023-03-31T02:22:53;12.00;;;3.00;;
24685;SDS011;12804;51.176;4.452;2023-03-31T02:25:21;13.45;;;3.15;;
24685;SDS011;12804;51.176;4.452;2023-03-31T02:27:55;16.00;;;3.80;;
24685;SDS011;12804;51.176;4.452;2023-03-31T02:30:35;16.45;;;2.95;;
24685;SDS011;12804;51.176;4.452;2023-03-31T02:33:08;14.13;;;3.17;;
24685;SDS011;12804;51.176;4.452;2023-03-31T02:35:34;9.18;;;2.25;;
24685;SDS011;12804;51.176;4.452;2023-03-31T02:38:01;11.68;;;3.20;;
24685;SDS011;12804;51.176;4.452;2023-03-31T02:40:30;13.43;;;2.60;;
24685;SDS011;12804;51.176;4.452;2023-03-31T02:42:57;11.73;;;2.45;;
24685;SDS011;12804;51.176;4.452;2023-03-31T02:48:01;8.75;;;1.83;;
24685;SDS011;12804;51.176;4.452;2023-03-31T02:50:29;8.70;;;1.60;;
24685;SDS011;12804;51.176;4.452;2023-03-31T03:01:23;6.50;;;1.30;;
24685;SDS011;12804;51.176;4.452;2023-03-31T03:12:05;8.00;;;1.23;;
24685;SDS011;12804;51.176;4.452;2023-03-31T03:14:50;6.68;;;1.20;;
24685;SDS011;12804;51.176;4.452;2023-03-31T03:17:40;9.43;;;1.40;;
24685;SDS011;12804;51.176;4.452;2023-03-31T03:20:09;7.05;;;1.65;;
24685;SDS011;12804;51.176;4.452;2023-03-31T03:22:37;5.53;;;1.33;;
24685;SDS011;12804;51.176;4.452;2023-03-31T03:25:04;6.20;;;1.45;;
24685;SDS011;12804;51.176;4.452;2023-03-31T03:27:31;11.48;;;2.00;;
24685;SDS011;12804;51.176;4.452;2023-03-31T03:29:57;7.18;;;1.50;;
24685;SDS011;12804;51.176;4.452;2023-03-31T03:32:23;11.18;;;1.55;;
24685;SDS011;12804;51.176;4.452;2023-03-31T03:34:49;8.35;;;1.50;;
24685;SDS011;12804;51.176;4.452;2023-03-31T03:37:14;11.13;;;2.05;;
24685;SDS011;12804;51.176;4.452;2023-03-31T03:39:40;6.47;;;1.45;;
24685;SDS011;12804;51.176;4.452;2023-03-31T03:42:06;10.93;;;1.67;;
24685;SDS011;12804;51.176;4.452;2023-03-31T03:44:32;8.38;;;1.83;;
24685;SDS011;12804;51.176;4.452;2023-03-31T03:46:58;11.10;;;1.73;;
24685;SDS011;12804;51.176;4.452;2023-03-31T03:49:23;9.82;;;2.15;;
24685;SDS011;12804;51.176;4.452;2023-03-31T03:51:50;10.60;;;1.73;;
24685;SDS011;12804;51.176;4.452;2023-03-31T03:54:15;11.05;;;1.80;;
24685;SDS011;12804;51.176;4.452;2023-03-31T03:56:41;9.93;;;2.00;;
24685;SDS011;12804;51.176;4.452;2023-03-31T03:59:07;9.55;;;1.92;;
24685;SDS011;12804;51.176;4.452;2023-03-31T04:01:33;11.07;;;2.13;;
24685;SDS011;12804;51.176;4.452;2023-03-31T04:03:58;9.10;;;1.67;;
24685;SDS011;12804;51.176;4.452;2023-03-31T04:06:24;9.57;;;1.70;;
24685;SDS011;12804;51.176;4.452;2023-03-31T04:08:51;11.93;;;2.20;;
24685;SDS011;12804;51.176;4.452;2023-03-31T04:11:17;8.27;;;2.10;;
24685;SDS011;12804;51.176;4.452;2023-03-31T04:13:43;8.35;;;1.58;;
24685;SDS011;12804;51.176;4.452;2023-03-31T04:16:10;10.10;;;1.80;;
24685;SDS011;12804;51.176;4.452;2023-03-31T04:18:36;6.85;;;1.48;;
24685;SDS011;12804;51.176;4.452;2023-03-31T04:21:09;7.93;;;1.77;;
24685;SDS011;12804;51.176;4.452;2023-03-31T04:23:40;9.02;;;1.50;;
24685;SDS011;12804;51.176;4.452;2023-03-31T04:26:13;5.65;;;1.55;;
24685;SDS011;12804;51.176;4.452;2023-03-31T04:28:43;6.82;;;1.35;;
24685;SDS011;12804;51.176;4.452;2023-03-31T04:31:11;8.68;;;1.50;;
24685;SDS011;12804;51.176;4.452;2023-03-31T04:33:52;6.57;;;1.55;;
24685;SDS011;12804;51.176;4.452;2023-03-31T04:36:19;4.55;;;1.40;;
24685;SDS011;12804;51.176;4.452;2023-03-31T04:38:46;7.40;;;1.50;;
24685;SDS011;12804;51.176;4.452;2023-03-31T04:41:15;7.38;;;1.55;;
24685;SDS011;12804;51.176;4.452;2023-03-31T04:43:41;6.20;;;1.17;;
24685;SDS011;12804;51.176;4.452;2023-03-31T04:46:07;6.43;;;1.30;;
24685;SDS011;12804;51.176;4.452;2023-03-31T04:48:33;6.10;;;1.13;;
24685;SDS011;12804;51.176;4.452;2023-03-31T04:51:00;7.53;;;1.27;;
24685;SDS011;12804;51.176;4.452;2023-03-31T04:53:26;7.45;;;1.40;;
24685;SDS011;12804;51.176;4.452;2023-03-31T04:55:52;5.32;;;0.95;;
24685;SDS011;12804;51.176;4.452;2023-03-31T04:58:18;7.28;;;1.30;;
24685;SDS011;12804;51.176;4.452;2023-03-31T05:00:44;4.82;;;1.20;;
24685;SDS011;12804;51.176;4.452;2023-03-31T05:03:10;4.75;;;1.20;;
24685;SDS011;12804;51.176;4.452;2023-03-31T05:05:36;3.35;;;0.90;;
24685;SDS011;12804;51.176;4.452;2023-03-31T05:08:02;4.88;;;1.05;;
24685;SDS011;12804;51.176;4.452;2023-03-31T05:10:28;5.72;;;1.17;;
24685;SDS011;12804;51.176;4.452;2023-03-31T05:12:54;6.50;;;1.33;;
24685;SDS011;12804;51.176;4.452;2023-03-31T05:15:20;8.65;;;1.63;;
24685;SDS011;12804;51.176;4.452;2023-03-31T05:17:48;2.90;;;1.30;;
24685;SDS011;12804;51.176;4.452;2023-03-31T05:20:14;8.05;;;1.40;;
24685;SDS011;12804;51.176;4.452;2023-03-31T05:22:40;6.25;;;2.10;;
24685;SDS011;12804;51.176;4.452;2023-03-31T05:25:07;6.32;;;1.75;;
24685;SDS011;12804;51.176;4.452;2023-03-31T05:27:34;8.50;;;2.10;;
24685;SDS011;12804;51.176;4.452;2023-03-31T05:30:01;9.02;;;1.75;;
24685;SDS011;12804;51.176;4.452;2023-03-31T05:32:27;4.32;;;1.45;;
24685;SDS011;12804;51.176;4.452;2023-03-31T05:34:53;10.82;;;2.10;;
24685;SDS011;12804;51.176;4.452;2023-03-31T05:37:22;7.90;;;1.52;;
24685;SDS011;12804;51.176;4.452;2023-03-31T05:39:48;8.02;;;2.60;;
24685;SDS011;12804;51.176;4.452;2023-03-31T05:42:15;9.95;;;2.10;;
24685;SDS011;12804;51.176;4.452;2023-03-31T05:44:41;9.18;;;2.15;;
24685;SDS011;12804;51.176;4.452;2023-03-31T05:47:07;12.82;;;2.58;;
24685;SDS011;12804;51.176;4.452;2023-03-31T05:49:33;10.35;;;3.08;;
24685;SDS011;12804;51.176;4.452;2023-03-31T05:51:58;11.20;;;2.90;;
24685;SDS011;12804;51.176;4.452;2023-03-31T05:54:25;10.15;;;4.22;;
24685;SDS011;12804;51.176;4.452;2023-03-31T05:56:51;6.15;;;3.97;;
24685;SDS011;12804;51.176;4.452;2023-03-31T05:59:18;6.63;;;4.00;;
24685;SDS011;12804;51.176;4.452;2023-03-31T06:01:43;7.65;;;3.28;;
24685;SDS011;12804;51.176;4.452;2023-03-31T06:04:09;9.77;;;3.53;;
24685;SDS011;12804;51.176;4.452;2023-03-31T06:06:35;11.55;;;3.45;;
24685;SDS011;12804;51.176;4.452;2023-03-31T06:09:02;7.40;;;3.22;;
24685;SDS011;12804;51.176;4.452;2023-03-31T06:11:29;9.65;;;3.20;;
24685;SDS011;12804;51.176;4.452;2023-03-31T06:13:55;10.55;;;3.50;;
24685;SDS011;12804;51.176;4.452;2023-03-31T06:16:21;13.27;;;3.05;;
24685;SDS011;12804;51.176;4.452;2023-03-31T06:18:47;17.08;;;2.88;;
24685;SDS011;12804;51.176;4.452;2023-03-31T06:21:16;11.77;;;2.72;;
24685;SDS011;12804;51.176;4.452;2023-03-31T06:23:43;11.85;;;2.95;;
24685;SDS011;12804;51.176;4.452;2023-03-31T06:26:11;10.93;;;2.60;;
24685;SDS011;12804;51.176;4.452;2023-03-31T06:28:43;15.65;;;2.95;;
24685;SDS011;12804;51.176;4.452;2023-03-31T06:31:11;16.42;;;2.70;;
24685;SDS011;12804;51.176;4.452;2023-03-31T06:33:40;13.82;;;2.95;;
24685;SDS011;12804;51.176;4.452;2023-03-31T06:36:07;13.25;;;2.85;;
24685;SDS011;12804;51.176;4.452;2023-03-31T06:38:34;13.85;;;3.10;;
24685;SDS011;12804;51.176;4.452;2023-03-31T06:41:02;17.67;;;2.88;;
24685;SDS011;12804;51.176;4.452;2023-03-31T06:43:30;14.63;;;2.78;;
24685;SDS011;12804;51.176;4.452;2023-03-31T06:45:56;12.65;;;2.63;;
24685;SDS011;12804;51.176;4.452;2023-03-31T06:48:22;13.65;;;3.60;;
24685;SDS011;12804;51.176;4.452;2023-03-31T06:50:50;17.83;;;2.97;;
24685;SDS011;12804;51.176;4.452;2023-03-31T06:53:17;14.35;;;2.60;;
24685;SDS011;12804;51.176;4.452;2023-03-31T06:55:43;15.10;;;2.83;;
24685;SDS011;12804;51.176;4.452;2023-03-31T06:58:09;20.83;;;3.42;;
24685;SDS011;12804;51.176;4.452;2023-03-31T07:00:36;20.00;;;3.08;;
24685;SDS011;12804;51.176;4.452;2023-03-31T07:03:02;14.48;;;2.40;;
24685;SDS011;12804;51.176;4.452;2023-03-31T07:05:29;15.13;;;3.20;;
24685;SDS011;12804;51.176;4.452;2023-03-31T07:07:56;13.57;;;2.83;;
24685;SDS011;12804;51.176;4.452;2023-03-31T07:10:24;21.48;;;3.03;;
24685;SDS011;12804;51.176;4.452;2023-03-31T07:12:52;15.13;;;2.30;;
24685;SDS011;12804;51.176;4.452;2023-03-31T07:15:18;14.18;;;3.05;;
24685;SDS011;12804;51.176;4.452;2023-03-31T07:17:45;17.73;;;3.00;;
24685;SDS011;12804;51.176;4.452;2023-03-31T07:20:15;13.40;;;2.92;;
24685;SDS011;12804;51.176;4.452;2023-03-31T07:22:46;14.63;;;3.58;;
24685;SDS011;12804;51.176;4.452;2023-03-31T07:25:14;17.77;;;3.20;;
24685;SDS011;12804;51.176;4.452;2023-03-31T07:27:41;18.42;;;3.55;;
24685;SDS011;12804;51.176;4.452;2023-03-31T07:30:09;16.60;;;2.75;;
24685;SDS011;12804;51.176;4.452;2023-03-31T07:32:37;21.90;;;3.38;;
24685;SDS011;12804;51.176;4.452;2023-03-31T07:35:05;19.30;;;3.05;;
24685;SDS011;12804;51.176;4.452;2023-03-31T07:37:35;17.70;;;3.25;;
24685;SDS011;12804;51.176;4.452;2023-03-31T07:40:02;20.60;;;2.90;;
24685;SDS011;12804;51.176;4.452;2023-03-31T07:42:30;17.83;;;2.80;;
24685;SDS011;12804;51.176;4.452;2023-03-31T07:44:56;11.98;;;2.60;;
24685;SDS011;12804;51.176;4.452;2023-03-31T07:47:24;14.05;;;2.92;;
24685;SDS011;12804;51.176;4.452;2023-03-31T07:49:50;16.38;;;3.20;;
24685;SDS011;12804;51.176;4.452;2023-03-31T07:52:16;14.27;;;2.97;;
24685;SDS011;12804;51.176;4.452;2023-03-31T07:54:46;16.33;;;3.10;;
24685;SDS011;12804;51.176;4.452;2023-03-31T07:57:12;18.33;;;3.28;;
24685;SDS011;12804;51.176;4.452;2023-03-31T07:59:38;11.30;;;2.90;;
24685;SDS011;12804;51.176;4.452;2023-03-31T08:02:04;16.38;;;2.85;;
24685;SDS011;12804;51.176;4.452;2023-03-31T08:04:30;22.35;;;3.50;;
24685;SDS011;12804;51.176;4.452;2023-03-31T08:06:56;14.75;;;2.58;;
24685;SDS011;12804;51.176;4.452;2023-03-31T08:09:22;18.80;;;3.17;;
24685;SDS011;12804;51.176;4.452;2023-03-31T08:11:48;17.38;;;3.03;;
24685;SDS011;12804;51.176;4.452;2023-03-31T08:14:14;20.23;;;2.95;;
24685;SDS011;12804;51.176;4.452;2023-03-31T08:16:40;14.98;;;3.08;;
24685;SDS011;12804;51.176;4.452;2023-03-31T08:19:06;15.95;;;3.47;;
24685;SDS011;12804;51.176;4.452;2023-03-31T08:21:32;16.40;;;3.15;;
24685;SDS011;12804;51.176;4.452;2023-03-31T08:23:58;17.08;;;2.50;;
24685;SDS011;12804;51.176;4.452;2023-03-31T08:26:23;13.60;;;2.90;;
24685;SDS011;12804;51.176;4.452;2023-03-31T08:28:50;12.10;;;2.60;;
24685;SDS011;12804;51.176;4.452;2023-03-31T08:31:18;22.90;;;2.97;;
24685;SDS011;12804;51.176;4.452;2023-03-31T08:33:45;16.08;;;3.03;;
24685;SDS011;12804;51.176;4.452;2023-03-31T08:36:12;20.80;;;3.30;;
24685;SDS011;12804;51.176;4.452;2023-03-31T08:38:39;20.95;;;3.55;;
24685;SDS011;12804;51.176;4.452;2023-03-31T08:43:56;19.42;;;3.55;;
24685;SDS011;12804;51.176;4.452;2023-03-31T08:46:24;17.05;;;2.80;;
24685;SDS011;12804;51.176;4.452;2023-03-31T08:48:54;16.58;;;2.63;;
24685;SDS011;12804;51.176;4.452;2023-03-31T08:51:32;13.70;;;2.38;;
24685;SDS011;12804;51.176;4.452;2023-03-31T08:54:05;17.08;;;2.67;;
24685;SDS011;12804;51.176;4.452;2023-03-31T08:56:37;13.88;;;3.22;;
24685;SDS011;12804;51.176;4.452;2023-03-31T08:59:16;10.70;;;2.30;;
24685;SDS011;12804;51.176;4.452;2023-03-31T09:01:49;15.10;;;3.00;;
24685;SDS011;12804;51.176;4.452;2023-03-31T09:15:22;12.10;;;2.38;;
24685;SDS011;12804;51.176;4.452;2023-03-31T09:17:57;13.25;;;2.75;;
24685;SDS011;12804;51.176;4.452;2023-03-31T09:20:31;14.40;;;2.85;;
24685;SDS011;12804;51.176;4.452;2023-03-31T09:23:06;11.50;;;2.65;;
24685;SDS011;12804;51.176;4.452;2023-03-31T09:25:43;11.23;;;2.40;;
24685;SDS011;12804;51.176;4.452;2023-03-31T09:28:13;15.20;;;2.90;;
24685;SDS011;12804;51.176;4.452;2023-03-31T09:30:45;14.93;;;2.80;;
24685;SDS011;12804;51.176;4.452;2023-03-31T09:35:59;13.80;;;2.88;;
24685;SDS011;12804;51.176;4.452;2023-03-31T09:38:25;17.10;;;2.75;;
24685;SDS011;12804;51.176;4.452;2023-03-31T09:41:01;16.40;;;3.22;;
24685;SDS011;12804;51.176;4.452;2023-03-31T09:43:30;13.23;;;2.47;;
24685;SDS011;12804;51.176;4.452;2023-03-31T09:46:02;18.42;;;3.22;;
24685;SDS011;12804;51.176;4.452;2023-03-31T09:48:36;14.82;;;3.20;;
24685;SDS011;12804;51.176;4.452;2023-03-31T09:51:05;15.90;;;2.92;;
24685;SDS011;12804;51.176;4.452;2023-03-31T09:53:46;17.27;;;3.03;;
24685;SDS011;12804;51.176;4.452;2023-03-31T09:56:33;22.67;;;4.03;;
24685;SDS011;12804;51.176;4.452;2023-03-31T09:59:00;20.98;;;3.33;;
24685;SDS011;12804;51.176;4.452;2023-03-31T10:01:27;16.63;;;3.28;;
24685;SDS011;12804;51.176;4.452;2023-03-31T10:03:54;22.48;;;3.25;;
24685;SDS011;12804;51.176;4.452;2023-03-31T10:06:21;15.20;;;2.97;;
24685;SDS011;12804;51.176;4.452;2023-03-31T10:11:36;16.10;;;2.83;;
24685;SDS011;12804;51.176;4.452;2023-03-31T10:16:52;17.35;;;3.65;;
24685;SDS011;12804;51.176;4.452;2023-03-31T10:19:31;21.55;;;3.42;;
24685;SDS011;12804;51.176;4.452;2023-03-31T10:21:59;16.17;;;3.15;;
24685;SDS011;12804;51.176;4.452;2023-03-31T10:25:09;21.58;;;3.55;;
24685;SDS011;12804;51.176;4.452;2023-03-31T10:27:43;19.27;;;3.38;;
24685;SDS011;12804;51.176;4.452;2023-03-31T10:30:16;17.63;;;3.30;;
24685;SDS011;12804;51.176;4.452;2023-03-31T10:32:46;17.33;;;2.92;;
24685;SDS011;12804;51.176;4.452;2023-03-31T10:37:47;12.73;;;2.88;;
24685;SDS011;12804;51.176;4.452;2023-03-31T10:40:20;20.10;;;2.90;;
24685;SDS011;12804;51.176;4.452;2023-03-31T10:47:57;17.17;;;3.38;;
24685;SDS011;12804;51.176;4.452;2023-03-31T10:50:31;22.52;;;3.63;;
24685;SDS011;12804;51.176;4.452;2023-03-31T10:53:01;15.13;;;2.92;;
24685;SDS011;12804;51.176;4.452;2023-03-31T10:55:31;19.80;;;3.63;;
24685;SDS011;12804;51.176;4.452;2023-03-31T11:01:03;13.43;;;3.25;;
24685;SDS011;12804;51.176;4.452;2023-03-31T11:06:04;20.13;;;3.40;;
24685;SDS011;12804;51.176;4.452;2023-03-31T11:11:49;13.93;;;2.97;;
24685;SDS011;12804;51.176;4.452;2023-03-31T11:14:45;14.77;;;2.67;;
24685;SDS011;12804;51.176;4.452;2023-03-31T11:22:58;14.05;;;2.80;;
24685;SDS011;12804;51.176;4.452;2023-03-31T11:25:41;12.15;;;3.15;;
24685;SDS011;12804;51.176;4.452;2023-03-31T11:36:38;10.48;;;2.15;;
24685;SDS011;12804;51.176;4.452;2023-03-31T11:39:35;13.05;;;2.40;;
24685;SDS011;12804;51.176;4.452;2023-03-31T11:42:19;15.07;;;2.33;;
24685;SDS011;12804;51.176;4.452;2023-03-31T11:44:53;12.15;;;2.42;;
24685;SDS011;12804;51.176;4.452;2023-03-31T11:47:27;10.18;;;2.05;;
24685;SDS011;12804;51.176;4.452;2023-03-31T11:50:15;12.23;;;2.22;;
24685;SDS011;12804;51.176;4.452;2023-03-31T11:52:58;11.00;;;1.80;;
24685;SDS011;12804;51.176;4.452;2023-03-31T11:55:28;11.52;;;1.90;;
24685;SDS011;12804;51.176;4.452;2023-03-31T12:00:29;11.13;;;2.17;;
24685;SDS011;12804;51.176;4.452;2023-03-31T12:13:59;8.57;;;2.00;;
24685;SDS011;12804;51.176;4.452;2023-03-31T12:16:38;10.50;;;1.80;;
24685;SDS011;12804;51.176;4.452;2023-03-31T12:22:17;10.70;;;2.10;;
24685;SDS011;12804;51.176;4.452;2023-03-31T12:24:51;10.18;;;1.52;;
24685;SDS011;12804;51.176;4.452;2023-03-31T12:33:16;9.05;;;1.48;;
24685;SDS011;12804;51.176;4.452;2023-03-31T12:44:30;4.72;;;1.00;;
24685;SDS011;12804;51.176;4.452;2023-03-31T12:47:24;4.97;;;1.40;;
24685;SDS011;12804;51.176;4.452;2023-03-31T12:53:04;5.57;;;1.20;;
24685;SDS011;12804;51.176;4.452;2023-03-31T12:56:04;7.38;;;0.90;;
24685;SDS011;12804;51.176;4.452;2023-03-31T12:58:34;5.32;;;1.33;;
24685;SDS011;12804;51.176;4.452;2023-03-31T13:01:15;5.60;;;1.00;;
24685;SDS011;12804;51.176;4.452;2023-03-31T13:11:39;6.20;;;1.07;;
24685;SDS011;12804;51.176;4.452;2023-03-31T13:16:45;6.20;;;1.20;;
24685;SDS011;12804;51.176;4.452;2023-03-31T13:19:30;6.20;;;1.10;;
24685;SDS011;12804;51.176;4.452;2023-03-31T13:21:58;11.57;;;1.52;;
24685;SDS011;12804;51.176;4.452;2023-03-31T13:24:27;5.78;;;1.05;;
24685;SDS011;12804;51.176;4.452;2023-03-31T13:26:56;4.68;;;1.10;;
24685;SDS011;12804;51.176;4.452;2023-03-31T13:29:44;4.88;;;1.48;;
24685;SDS011;12804;51.176;4.452;2023-03-31T13:32:20;4.25;;;1.20;;
24685;SDS011;12804;51.176;4.452;2023-03-31T13:35:13;4.30;;;1.10;;
24685;SDS011;12804;51.176;4.452;2023-03-31T13:37:51;2.33;;;0.77;;
24685;SDS011;12804;51.176;4.452;2023-03-31T14:08:52;1.88;;;0.40;;
24685;SDS011;12804;51.176;4.452;2023-03-31T14:11:30;0.80;;;0.50;;
24685;SDS011;12804;51.176;4.452;2023-03-31T14:14:13;2.45;;;0.30;;
24685;SDS011;12804;51.176;4.452;2023-03-31T14:16:44;1.50;;;0.40;;
24685;SDS011;12804;51.176;4.452;2023-03-31T14:22:17;3.35;;;0.50;;
24685;SDS011;12804;51.176;4.452;2023-03-31T14:30:26;1.52;;;0.47;;
24685;SDS011;12804;51.176;4.452;2023-03-31T14:38:19;3.00;;;0.40;;
24685;SDS011;12804;51.176;4.452;2023-03-31T14:40:47;2.47;;;0.50;;
24685;SDS011;12804;51.176;4.452;2023-03-31T14:43:19;3.08;;;0.50;;
24685;SDS011;12804;51.176;4.452;2023-03-31T14:45:58;2.55;;;0.63;;
24685;SDS011;12804;51.176;4.452;2023-03-31T14:48:26;1.77;;;0.40;;
24685;SDS011;12804;51.176;4.452;2023-03-31T14:50:55;1.02;;;0.38;;
24685;SDS011;12804;51.176;4.452;2023-03-31T14:53:23;1.65;;;0.50;;
24685;SDS011;12804;51.176;4.452;2023-03-31T14:55:50;0.88;;;0.40;;
24685;SDS011;12804;51.176;4.452;2023-03-31T14:58:27;1.63;;;0.30;;
24685;SDS011;12804;51.176;4.452;2023-03-31T15:00:58;4.28;;;0.50;;
24685;SDS011;12804;51.176;4.452;2023-03-31T15:03:27;2.25;;;0.60;;
24685;SDS011;12804;51.176;4.452;2023-03-31T15:05:57;1.42;;;0.47;;
24685;SDS011;12804;51.176;4.452;2023-03-31T15:08:25;2.30;;;0.50;;
24685;SDS011;12804;51.176;4.452;2023-03-31T15:10:56;4.10;;;0.73;;
24685;SDS011;12804;51.176;4.452;2023-03-31T15:16:17;1.50;;;0.70;;
24685;SDS011;12804;51.176;4.452;2023-03-31T15:18:44;1.80;;;0.65;;
24685;SDS011;12804;51.176;4.452;2023-03-31T15:21:20;2.28;;;0.60;;
24685;SDS011;12804;51.176;4.452;2023-03-31T15:23:51;1.45;;;0.60;;
24685;SDS011;12804;51.176;4.452;2023-03-31T15:26:20;2.35;;;0.77;;
24685;SDS011;12804;51.176;4.452;2023-03-31T15:28:54;3.60;;;0.70;;
24685;SDS011;12804;51.176;4.452;2023-03-31T15:31:28;3.97;;;0.90;;
24685;SDS011;12804;51.176;4.452;2023-03-31T15:33:54;2.20;;;0.45;;
24685;SDS011;12804;51.176;4.452;2023-03-31T15:36:21;1.38;;;0.47;;
24685;SDS011;12804;51.176;4.452;2023-03-31T15:38:53;2.03;;;0.50;;
24685;SDS011;12804;51.176;4.452;2023-03-31T15:41:21;1.33;;;0.55;;
24685;SDS011;12804;51.176;4.452;2023-03-31T15:43:49;1.30;;;0.55;;
24685;SDS011;12804;51.176;4.452;2023-03-31T15:46:59;2.45;;;0.50;;
24685;SDS011;12804;51.176;4.452;2023-03-31T15:49:26;3.85;;;1.20;;
24685;SDS011;12804;51.176;4.452;2023-03-31T15:51:53;6.43;;;1.10;;
24685;SDS011;12804;51.176;4.452;2023-03-31T15:54:28;9.05;;;1.80;;
24685;SDS011;12804;51.176;4.452;2023-03-31T15:57:05;5.95;;;1.17;;
24685;SDS011;12804;51.176;4.452;2023-03-31T15:59:48;8.15;;;1.13;;
24685;SDS011;12804;51.176;4.452;2023-03-31T16:02:16;7.22;;;1.10;;
24685;SDS011;12804;51.176;4.452;2023-03-31T16:04:47;6.55;;;1.00;;
24685;SDS011;12804;51.176;4.452;2023-03-31T16:07:15;9.95;;;1.35;;
24685;SDS011;12804;51.176;4.452;2023-03-31T16:12:33;5.97;;;1.30;;
24685;SDS011;12804;51.176;4.452;2023-03-31T16:23:01;8.38;;;1.58;;
24685;SDS011;12804;51.176;4.452;2023-03-31T16:25:38;7.28;;;1.60;;
24685;SDS011;12804;51.176;4.452;2023-03-31T16:28:05;8.10;;;1.73;;
24685;SDS011;12804;51.176;4.452;2023-03-31T16:30:36;5.30;;;1.48;;
24685;SDS011;12804;51.176;4.452;2023-03-31T16:33:04;6.07;;;1.45;;
24685;SDS011;12804;51.176;4.452;2023-03-31T16:35:33;12.02;;;1.58;;
24685;SDS011;12804;51.176;4.452;2023-03-31T16:38:04;6.32;;;1.42;;
24685;SDS011;12804;51.176;4.452;2023-03-31T16:40:35;14.75;;;1.55;;
24685;SDS011;12804;51.176;4.452;2023-03-31T16:43:21;9.40;;;1.60;;
24685;SDS011;12804;51.176;4.452;2023-03-31T16:45:53;6.78;;;1.20;;
24685;SDS011;12804;51.176;4.452;2023-03-31T16:48:21;9.40;;;1.63;;
24685;SDS011;12804;51.176;4.452;2023-03-31T16:50:49;6.88;;;1.65;;
24685;SDS011;12804;51.176;4.452;2023-03-31T16:53:20;7.43;;;1.40;;
24685;SDS011;12804;51.176;4.452;2023-03-31T16:55:47;6.72;;;1.38;;
24685;SDS011;12804;51.176;4.452;2023-03-31T16:58:14;4.78;;;1.08;;
24685;SDS011;12804;51.176;4.452;2023-03-31T17:00:40;7.45;;;1.60;;
24685;SDS011;12804;51.176;4.452;2023-03-31T17:03:07;6.72;;;1.10;;
24685;SDS011;12804;51.176;4.452;2023-03-31T17:05:41;6.85;;;1.52;;
24685;SDS011;12804;51.176;4.452;2023-03-31T17:08:11;7.07;;;1.42;;
24685;SDS011;12804;51.176;4.452;2023-03-31T17:10:41;8.32;;;1.67;;
24685;SDS011;12804;51.176;4.452;2023-03-31T17:13:14;10.18;;;1.55;;
24685;SDS011;12804;51.176;4.452;2023-03-31T17:15:40;5.60;;;1.50;;
24685;SDS011;12804;51.176;4.452;2023-03-31T17:18:06;9.07;;;1.67;;
24685;SDS011;12804;51.176;4.452;2023-03-31T17:20:32;5.80;;;1.65;;
24685;SDS011;12804;51.176;4.452;2023-03-31T17:22:58;4.82;;;1.25;;
24685;SDS011;12804;51.176;4.452;2023-03-31T17:25:24;8.88;;;1.70;;
24685;SDS011;12804;51.176;4.452;2023-03-31T17:27:50;7.13;;;1.17;;
24685;SDS011;12804;51.176;4.452;2023-03-31T17:30:16;9.32;;;1.83;;
24685;SDS011;12804;51.176;4.452;2023-03-31T17:32:42;7.88;;;1.65;;
24685;SDS011;12804;51.176;4.452;2023-03-31T17:35:08;12.07;;;2.08;;
24685;SDS011;12804;51.176;4.452;2023-03-31T17:37:35;7.90;;;1.90;;
24685;SDS011;12804;51.176;4.452;2023-03-31T17:40:02;6.25;;;1.42;;
24685;SDS011;12804;51.176;4.452;2023-03-31T17:42:31;7.78;;;2.05;;
24685;SDS011;12804;51.176;4.452;2023-03-31T17:44:57;8.00;;;1.90;;
24685;SDS011;12804;51.176;4.452;2023-03-31T17:47:23;9.50;;;2.28;;
24685;SDS011;12804;51.176;4.452;2023-03-31T17:49:49;10.15;;;1.75;;
24685;SDS011;12804;51.176;4.452;2023-03-31T17:52:15;10.60;;;2.30;;
24685;SDS011;12804;51.176;4.452;2023-03-31T17:54:41;8.35;;;1.98;;
24685;SDS011;12804;51.176;4.452;2023-03-31T17:57:07;16.00;;;2.42;;
24685;SDS011;12804;51.176;4.452;2023-03-31T17:59:33;14.07;;;2.65;;
24685;SDS011;12804;51.176;4.452;2023-03-31T18:01:59;14.70;;;2.63;;
24685;SDS011;12804;51.176;4.452;2023-03-31T18:04:25;12.85;;;3.00;;
24685;SDS011;12804;51.176;4.452;2023-03-31T18:06:51;13.15;;;2.47;;
24685;SDS011;12804;51.176;4.452;2023-03-31T18:09:17;12.13;;;2.58;;
24685;SDS011;12804;51.176;4.452;2023-03-31T18:11:43;10.90;;;2.25;;
24685;SDS011;12804;51.176;4.452;2023-03-31T18:14:09;8.40;;;1.98;;
24685;SDS011;12804;51.176;4.452;2023-03-31T18:16:36;12.40;;;2.90;;